Time;durP1;ratioP1;P1;durP2;ratioP2;P2;SDS_P1;SDS_P2;PMS_P1;PMS_P2;Temp;Humidity;BMP_temperature;BMP_pressure;BME280_temperature;BME280_humidity;BME280_pressure;Samples;Min_cycle;Max_cycle;Signal;HPM_P1;HPM_P2
2023/10/16 00:01:10;;;;;;;2.53;2.00;;;13.80;86.90;;;;;;4965017;28;20513;-70
2023/10/16 00:03:42;;;;;;;3.87;2.30;;;13.80;86.90;;;;;;4949610;28;21251;-71
2023/10/16 00:06:11;;;;;;;2.97;1.97;;;13.80;86.90;;;;;;4912787;29;20526;-70
2023/10/16 00:08:47;;;;;;;2.27;2.07;;;13.80;86.80;;;;;;4930385;28;21039;-71
2023/10/16 00:11:23;;;;;;;3.10;1.90;;;13.80;86.80;;;;;;4937332;28;20433;-71
2023/10/16 00:13:50;;;;;;;2.20;2.03;;;13.80;86.80;;;;;;4928753;28;20553;-71
2023/10/16 00:16:17;;;;;;;2.13;1.93;;;13.80;86.70;;;;;;4945789;28;20983;-71
2023/10/16 00:18:48;;;;;;;2.33;2.13;;;13.80;86.70;;;;;;4935971;28;20896;-71
2023/10/16 00:21:14;;;;;;;2.83;2.40;;;13.80;86.70;;;;;;4940463;28;20633;-70
2023/10/16 00:23:41;;;;;;;2.37;2.17;;;13.70;86.40;;;;;;4931251;28;20501;-70
2023/10/16 00:26:15;;;;;;;5.37;2.40;;;13.70;86.50;;;;;;4942963;28;20458;-71
2023/10/16 00:29:02;;;;;;;2.90;2.40;;;13.70;86.50;;;;;;4935599;28;20563;-71
2023/10/16 00:31:32;;;;;;;2.47;1.93;;;13.70;86.50;;;;;;4936660;28;20444;-71
2023/10/16 00:33:59;;;;;;;2.70;2.13;;;13.70;86.40;;;;;;4926954;28;20476;-71
2023/10/16 00:36:26;;;;;;;2.47;2.20;;;13.70;86.40;;;;;;4941640;28;20980;-70
2023/10/16 00:38:54;;;;;;;2.53;2.20;;;13.70;86.40;;;;;;4918640;28;20477;-71
2023/10/16 00:41:24;;;;;;;2.93;2.10;;;13.70;86.40;;;;;;4947887;28;20538;-71
2023/10/16 00:43:50;;;;;;;2.37;2.17;;;13.70;86.30;;;;;;4940421;28;20474;-71
2023/10/16 00:46:36;;;;;;;2.03;1.93;;;13.70;86.30;;;;;;4910804;29;20465;-71
2023/10/16 00:49:06;;;;;;;2.67;2.20;;;13.60;86.10;;;;;;4929694;28;20460;-71
2023/10/16 00:51:38;;;;;;;3.70;2.50;;;13.60;86.10;;;;;;4947242;28;20745;-71
2023/10/16 00:54:18;;;;;;;2.53;2.23;;;13.60;86.10;;;;;;4915409;28;21190;-71
2023/10/16 00:56:52;;;;;;;2.37;2.20;;;13.60;86.10;;;;;;4926693;28;20449;-71
2023/10/16 00:59:23;;;;;;;3.83;2.37;;;13.60;86.10;;;;;;4944381;28;20517;-71
2023/10/16 01:02:05;;;;;;;2.10;1.83;;;13.60;86.10;;;;;;4911110;29;20473;-71
2023/10/16 01:04:32;;;;;;;2.60;2.40;;;13.60;86.10;;;;;;4916223;28;20481;-71
2023/10/16 01:07:05;;;;;;;2.33;2.23;;;13.60;86.10;;;;;;4946494;28;20445;-71
2023/10/16 01:09:35;;;;;;;3.60;2.40;;;13.60;86.10;;;;;;4933153;29;20434;-71
2023/10/16 01:12:11;;;;;;;3.60;2.40;;;13.60;86.00;;;;;;4935047;28;20517;-71
2023/10/16 01:14:39;;;;;;;2.90;2.60;;;13.60;86.00;;;;;;4911269;29;20457;-71
2023/10/16 01:17:09;;;;;;;4.23;2.10;;;13.50;85.80;;;;;;4928462;28;20487;-71
2023/10/16 01:19:36;;;;;;;4.90;2.33;;;13.50;85.90;;;;;;4921546;28;20468;-71
2023/10/16 01:22:03;;;;;;;4.90;2.30;;;13.50;85.90;;;;;;4937838;28;20538;-70
2023/10/16 01:24:31;;;;;;;3.60;2.77;;;13.50;85.80;;;;;;4944845;28;20474;-71
2023/10/16 01:27:06;;;;;;;2.87;2.67;;;13.50;85.90;;;;;;4930183;28;20443;-71
2023/10/16 01:29:33;;;;;;;2.50;2.30;;;13.50;85.90;;;;;;4925347;29;20444;-71
2023/10/16 01:32:00;;;;;;;2.63;2.43;;;13.50;85.80;;;;;;4926429;28;20477;-71
2023/10/16 01:34:31;;;;;;;3.37;2.33;;;13.50;85.80;;;;;;4942111;29;20446;-70
2023/10/16 01:37:04;;;;;;;3.30;2.43;;;13.50;85.80;;;;;;4942890;28;20917;-71
2023/10/16 01:39:48;;;;;;;2.80;2.53;;;13.50;86.70;;;;;;4942664;28;20497;-67
2023/10/16 01:42:19;;;;;;;3.57;2.60;;;13.50;85.80;;;;;;4938000;28;20438;-68
2023/10/16 01:44:46;;;;;;;2.70;2.50;;;13.40;85.70;;;;;;4948215;28;20469;-68
2023/10/16 01:47:16;;;;;;;2.87;2.57;;;13.40;85.80;;;;;;4929324;28;20462;-68
2023/10/16 01:49:49;;;;;;;2.90;2.30;;;13.40;85.80;;;;;;4937276;28;20448;-67
2023/10/16 01:52:15;;;;;;;2.50;2.30;;;13.40;85.80;;;;;;4928393;28;20469;-67
2023/10/16 01:54:47;;;;;;;5.53;2.90;;;13.40;85.70;;;;;;4924859;28;21335;-68
2023/10/16 01:57:14;;;;;;;2.90;2.70;;;13.40;85.70;;;;;;4958444;28;20533;-68
2023/10/16 01:59:43;;;;;;;2.90;2.60;;;13.40;85.60;;;;;;4923503;28;20465;-68
2023/10/16 02:02:12;;;;;;;3.03;2.83;;;13.40;85.60;;;;;;4928490;28;20476;-67
2023/10/16 02:04:43;;;;;;;2.90;2.60;;;13.40;85.60;;;;;;4944629;28;20470;-67
2023/10/16 02:07:14;;;;;;;4.47;2.37;;;13.40;85.60;;;;;;4941074;28;20470;-67
2023/10/16 02:09:40;;;;;;;2.80;2.60;;;13.40;85.70;;;;;;4915479;28;20419;-68
2023/10/16 02:12:16;;;;;;;2.83;2.53;;;13.30;85.60;;;;;;4942594;28;20900;-67
2023/10/16 02:14:45;;;;;;;3.00;2.70;;;13.30;85.50;;;;;;4918096;29;20545;-68
2023/10/16 02:17:19;;;;;;;3.27;2.23;;;13.30;85.40;;;;;;4917807;28;20479;-67
2023/10/16 02:19:45;;;;;;;2.80;2.40;;;13.30;85.50;;;;;;4925126;28;20453;-68
2023/10/16 02:22:16;;;;;;;3.17;2.53;;;13.30;85.40;;;;;;4944076;28;20434;-67
2023/10/16 02:24:55;;;;;;;2.33;2.13;;;13.30;85.40;;;;;;4912788;28;20493;-68
2023/10/16 02:27:21;;;;;;;2.23;2.00;;;13.30;85.30;;;;;;4928145;28;20463;-67
2023/10/16 02:29:51;;;;;;;2.50;2.30;;;13.30;85.30;;;;;;4920505;28;20438;-67
2023/10/16 02:32:18;;;;;;;4.90;2.50;;;13.30;85.40;;;;;;4940009;29;20986;-68
2023/10/16 02:34:43;;;;;;;2.77;2.57;;;13.30;85.40;;;;;;4936417;29;20514;-67
2023/10/16 02:37:14;;;;;;;4.60;2.70;;;13.30;85.30;;;;;;4924869;29;20463;-68
2023/10/16 02:39:50;;;;;;;3.30;3.00;;;13.20;85.30;;;;;;4933076;29;20431;-67
2023/10/16 02:42:19;;;;;;;2.70;2.50;;;13.20;85.30;;;;;;4961627;28;20972;-67
2023/10/16 02:44:45;;;;;;;3.00;2.80;;;13.20;85.30;;;;;;4961804;28;20726;-68
2023/10/16 02:47:22;;;;;;;2.90;2.70;;;13.20;85.30;;;;;;4953791;28;20472;-68
2023/10/16 02:49:56;;;;;;;3.00;2.57;;;13.20;85.30;;;;;;4927841;28;20449;-68
2023/10/16 02:52:22;;;;;;;3.13;2.90;;;13.20;85.20;;;;;;4945933;28;20434;-67
2023/10/16 02:54:48;;;;;;;3.60;3.00;;;13.20;85.30;;;;;;4928131;28;20448;-68
2023/10/16 02:57:14;;;;;;;3.07;2.83;;;13.20;85.10;;;;;;4927952;28;20462;-67
2023/10/16 02:59:43;;;;;;;3.40;3.13;;;13.10;85.20;;;;;;4943969;28;20422;-67
2023/10/16 03:02:22;;;;;;;3.00;2.80;;;13.20;85.30;;;;;;4911161;28;20962;-68
2023/10/16 03:04:51;;;;;;;4.33;3.27;;;13.10;85.10;;;;;;4928574;28;20478;-67
2023/10/16 03:07:21;;;;;;;2.90;2.70;;;13.10;85.10;;;;;;4934826;28;20459;-68
2023/10/16 03:09:50;;;;;;;3.13;2.90;;;13.10;85.10;;;;;;4918451;29;20451;-67
2023/10/16 03:12:19;;;;;;;3.63;2.60;;;13.10;85.10;;;;;;4932647;29;20928;-68
2023/10/16 03:14:58;;;;;;;3.00;2.80;;;13.10;85.10;;;;;;4937145;29;20706;-68
2023/10/16 03:19:57;;;;;;;4.43;3.50;;;13.10;85.10;;;;;;4955414;28;20444;-67
2023/10/16 03:22:29;;;;;;;4.37;3.97;;;13.10;85.00;;;;;;4946121;28;20429;-67
2023/10/16 03:25:00;;;;;;;4.90;3.20;;;13.10;84.90;;;;;;4955639;28;20475;-68
2023/10/16 03:27:32;;;;;;;3.73;3.43;;;13.10;85.00;;;;;;4924291;28;20466;-66
2023/10/16 03:29:58;;;;;;;3.73;3.43;;;13.10;85.00;;;;;;4956895;28;20431;-71
2023/10/16 03:32:31;;;;;;;3.80;3.50;;;13.10;85.00;;;;;;4956252;28;20987;-71
2023/10/16 03:34:58;;;;;;;3.87;3.57;;;13.10;85.10;;;;;;4945810;28;20433;-71
2023/10/16 03:37:25;;;;;;;3.27;3.07;;;13.00;85.00;;;;;;4908593;28;21089;-70
2023/10/16 03:40:04;;;;;;;9.43;3.40;;;13.00;84.90;;;;;;4930559;28;20522;-71
2023/10/16 03:42:30;;;;;;;3.60;3.10;;;13.00;84.90;;;;;;4959677;28;20759;-67
2023/10/16 03:44:56;;;;;;;3.43;3.23;;;13.00;84.90;;;;;;4909718;28;20478;-67
2023/10/16 03:47:25;;;;;;;3.63;3.33;;;13.00;84.90;;;;;;4924404;29;20475;-71
2023/10/16 03:49:51;;;;;;;3.27;3.00;;;13.00;84.90;;;;;;4917303;28;20462;-71
2023/10/16 03:52:20;;;;;;;4.03;3.73;;;13.00;84.80;;;;;;4949405;28;21403;-71
2023/10/16 03:54:46;;;;;;;3.73;3.33;;;13.00;84.80;;;;;;4936065;29;20439;-71
2023/10/16 03:57:14;;;;;;;3.27;3.07;;;13.00;84.90;;;;;;4933833;28;20498;-70
2023/10/16 03:59:42;;;;;;;4.10;3.27;;;13.00;84.80;;;;;;4922600;28;20196;-71
2023/10/16 04:02:19;;;;;;;3.40;3.10;;;13.00;84.70;;;;;;4919736;28;20850;-70
2023/10/16 04:04:51;;;;;;;4.07;3.23;;;13.00;84.80;;;;;;4927557;29;20484;-70
2023/10/16 04:07:17;;;;;;;6.17;3.40;;;12.90;84.60;;;;;;4944360;28;20821;-71
2023/10/16 04:09:49;;;;;;;3.60;3.30;;;12.90;84.50;;;;;;4925877;28;20445;-70
2023/10/16 04:12:21;;;;;;;3.57;3.27;;;12.90;84.60;;;;;;4923145;29;20190;-70
2023/10/16 04:15:03;;;;;;;4.10;3.70;;;12.90;84.60;;;;;;4931111;28;20556;-70
2023/10/16 04:17:35;;;;;;;4.40;4.00;;;12.90;84.60;;;;;;4931555;29;20548;-70
2023/10/16 04:20:42;;;;;;;3.40;3.20;;;12.90;84.50;;;;;;4910279;28;21017;-70
2023/10/16 04:22:57;;;;;;;3.97;3.70;;;12.90;84.50;;;;;;4948339;28;20443;-68
2023/10/16 04:25:40;;;;;;;4.87;4.00;;;12.90;84.60;;;;;;4939904;28;20980;-67
2023/10/16 04:28:30;;;;;;;3.80;3.50;;;12.90;84.50;;;;;;4961768;28;20451;-67
2023/10/16 04:31:31;;;;;;;3.30;3.10;;;12.90;84.50;;;;;;4938333;28;20556;-67
2023/10/16 04:34:13;;;;;;;3.63;3.33;;;12.80;84.40;;;;;;4938548;29;20446;-68
2023/10/16 04:36:54;;;;;;;4.83;3.70;;;12.80;84.50;;;;;;4934800;29;20473;-68
2023/10/16 04:45:24;;;;;;;3.87;3.57;;;12.80;84.50;;;;;;4958872;28;21007;-67
2023/10/16 04:53:09;;;;;;;5.30;3.50;;;12.80;84.70;;;;;;4927292;28;20435;-68
2023/10/16 04:58:38;;;;;;;4.20;3.80;;;12.70;84.70;;;;;;4942771;28;20873;-67
2023/10/16 05:11:36;;;;;;;3.80;3.50;;;12.70;84.90;;;;;;4954526;28;20426;-67
2023/10/16 05:16:53;;;;;;;3.63;3.33;;;12.70;84.80;;;;;;4944210;28;21055;-68
2023/10/16 05:22:02;;;;;;;4.40;4.00;;;12.70;84.90;;;;;;4957879;28;20427;-67
2023/10/16 06:14:34;;;;;;;4.40;4.00;;;12.50;84.80;;;;;;4923440;28;20494;-67
2023/10/16 06:17:19;;;;;;;3.53;3.23;;;12.50;84.80;;;;;;4943630;28;20499;-67
2023/10/16 06:19:45;;;;;;;9.10;4.50;;;12.50;84.90;;;;;;4961406;28;20524;-66
2023/10/16 06:22:11;;;;;;;3.90;3.50;;;12.50;84.90;;;;;;4943211;28;20582;-66
2023/10/16 06:24:47;;;;;;;3.73;3.47;;;12.50;84.90;;;;;;4943029;28;20485;-66
2023/10/16 06:27:19;;;;;;;5.00;4.60;;;12.50;84.90;;;;;;4960318;28;20480;-67
2023/10/16 06:29:49;;;;;;;4.10;3.77;;;12.50;85.00;;;;;;4946694;28;20505;-67
2023/10/16 06:32:21;;;;;;;5.87;4.33;;;12.50;85.00;;;;;;4927708;28;21126;-67
2023/10/16 06:34:48;;;;;;;4.93;4.17;;;12.50;85.00;;;;;;4959744;28;20458;-67
2023/10/16 06:37:17;;;;;;;4.77;4.37;;;12.50;85.10;;;;;;4958088;28;20448;-67
2023/10/16 06:39:48;;;;;;;4.50;4.10;;;12.50;85.20;;;;;;4939566;28;20434;-67
2023/10/16 06:42:19;;;;;;;4.93;3.93;;;12.50;85.10;;;;;;4944064;28;21020;-67
2023/10/16 06:45:06;;;;;;;4.27;3.87;;;12.50;85.20;;;;;;4924672;29;20508;-67
2023/10/16 06:47:47;;;;;;;5.33;3.90;;;12.50;85.20;;;;;;4964675;28;20446;-66
2023/10/16 06:52:53;;;;;;;4.13;3.80;;;12.50;85.30;;;;;;4943058;28;20466;-69
2023/10/16 06:55:23;;;;;;;3.70;3.40;;;12.50;85.40;;;;;;4947172;28;20951;-72
2023/10/16 06:57:49;;;;;;;4.60;3.80;;;12.50;85.40;;;;;;4980128;28;20578;-74
2023/10/16 07:02:56;;;;;;;5.57;4.63;;;12.40;86.20;;;;;;4962693;28;20446;-69
2023/10/16 07:05:42;;;;;;;4.63;4.10;;;12.40;85.50;;;;;;4945738;28;20940;-69
2023/10/16 07:08:10;;;;;;;5.00;4.60;;;12.40;85.60;;;;;;4962612;28;20467;-69
2023/10/16 07:10:40;;;;;;;5.30;4.43;;;12.40;85.60;;;;;;4943316;28;20449;-68
2023/10/16 07:13:10;;;;;;;5.70;4.77;;;12.40;85.60;;;;;;4927237;28;20434;-69
2023/10/16 07:15:36;;;;;;;5.50;5.00;;;12.40;85.70;;;;;;4960137;28;20846;-69
2023/10/16 07:18:06;;;;;;;6.53;4.00;;;12.40;85.70;;;;;;4926916;28;20449;-69
2023/10/16 07:20:34;;;;;;;7.93;5.97;;;12.40;85.70;;;;;;4942694;28;20505;-68
2023/10/16 07:23:10;;;;;;;5.27;4.87;;;12.40;85.70;;;;;;4943695;28;20424;-70
2023/10/16 07:25:47;;;;;;;7.47;4.90;;;12.40;86.00;;;;;;4943914;28;20473;-72
2023/10/16 07:28:15;;;;;;;5.30;4.33;;;12.40;85.80;;;;;;4925661;28;20443;-73
2023/10/16 07:30:42;;;;;;;7.17;4.60;;;12.40;85.80;;;;;;4943177;29;20429;-71
2023/10/16 07:33:16;;;;;;;5.13;4.63;;;12.40;85.80;;;;;;4943304;29;20457;-70
2023/10/16 07:35:48;;;;;;;5.00;4.60;;;12.40;85.80;;;;;;4942165;29;20452;-70
2023/10/16 07:38:19;;;;;;;8.13;4.87;;;12.40;85.90;;;;;;4962335;28;20449;-69
2023/10/16 07:40:52;;;;;;;4.83;4.30;;;12.40;86.00;;;;;;4980282;28;20430;-70
2023/10/16 07:43:27;;;;;;;5.93;5.17;;;12.40;86.00;;;;;;4978919;28;20505;-70
2023/10/16 07:48:51;;;;;;;5.67;4.70;;;12.40;86.10;;;;;;4944725;28;20999;-73
2023/10/16 07:51:20;;;;;;;5.20;4.60;;;12.30;86.10;;;;;;4921007;29;20472;-70
2023/10/16 07:53:49;;;;;;;5.20;4.70;;;12.40;86.20;;;;;;4908277;29;20454;-70
2023/10/16 07:56:19;;;;;;;14.37;8.87;;;12.40;86.30;;;;;;4940597;28;20431;-69
2023/10/16 07:58:49;;;;;;;13.20;7.27;;;12.40;86.60;;;;;;4923691;29;20461;-71
2023/10/16 08:03:45;;;;;;;11.40;7.00;;;12.30;86.70;;;;;;4940742;29;20831;-71
2023/10/16 08:06:12;;;;;;;8.90;6.20;;;12.30;87.70;;;;;;4940404;29;20725;-70
2023/10/16 08:08:42;;;;;;;11.87;7.43;;;12.20;87.00;;;;;;4922677;29;20438;-70
2023/10/16 08:11:13;;;;;;;10.50;5.80;;;12.20;87.10;;;;;;4922718;29;20425;-70
2023/10/16 08:13:52;;;;;;;6.70;6.00;;;12.20;87.10;;;;;;4911896;29;20914;-70
2023/10/16 08:16:21;;;;;;;7.07;6.30;;;12.20;87.10;;;;;;4931328;29;20423;-71
2023/10/16 08:18:57;;;;;;;10.37;6.50;;;12.30;87.20;;;;;;4922769;29;20745;-71
2023/10/16 08:21:25;;;;;;;10.90;6.90;;;12.20;87.10;;;;;;4930543;28;20473;-71
2023/10/16 08:23:55;;;;;;;7.83;6.50;;;12.30;87.30;;;;;;4941480;28;20659;-71
2023/10/16 08:26:30;;;;;;;9.40;5.87;;;12.30;87.30;;;;;;4958417;28;20454;-70
2023/10/16 08:31:43;;;;;;;7.47;6.07;;;12.30;87.20;;;;;;4959117;28;20421;-71
2023/10/16 08:34:21;;;;;;;7.77;6.20;;;12.30;87.30;;;;;;4925934;28;20444;-71
2023/10/16 08:36:53;;;;;;;6.03;5.43;;;12.30;87.40;;;;;;4933483;29;20426;-70
2023/10/16 08:39:21;;;;;;;10.37;6.73;;;12.30;87.20;;;;;;4894424;28;20463;-71
2023/10/16 08:42:00;;;;;;;6.70;5.77;;;12.30;87.20;;;;;;4941919;28;20422;-71
2023/10/16 08:44:28;;;;;;;8.17;6.00;;;12.30;87.20;;;;;;4959056;28;20986;-71
2023/10/16 08:49:26;;;;;;;8.77;6.60;;;12.30;87.20;;;;;;4942797;28;20436;-70
2023/10/16 08:52:04;;;;;;;8.90;5.80;;;12.30;87.20;;;;;;4943134;28;20411;-71
2023/10/16 08:55:15;;;;;;;7.47;5.90;;;12.30;87.40;;;;;;4960196;28;20457;-71
2023/10/16 08:57:20;;;;;;;6.93;4.97;;;12.40;87.40;;;;;;4932833;28;20449;-70
2023/10/16 08:59:50;;;;;;;5.97;5.37;;;12.30;87.40;;;;;;4927213;28;20440;-71
2023/10/16 09:02:23;;;;;;;9.23;5.90;;;12.30;87.50;;;;;;4942604;28;20445;-71
2023/10/16 09:04:52;;;;;;;8.33;5.97;;;12.30;87.50;;;;;;4910443;28;20477;-72
2023/10/16 09:07:24;;;;;;;6.40;5.10;;;12.40;87.60;;;;;;4942243;28;20463;-71
2023/10/16 09:09:55;;;;;;;7.23;5.33;;;12.40;87.60;;;;;;4961910;28;21034;-71
2023/10/16 09:12:37;;;;;;;6.67;5.97;;;12.40;87.50;;;;;;4926079;29;20442;-80
2023/10/16 09:15:09;;;;;;;6.80;6.10;;;12.40;87.50;;;;;;4917750;28;20518;-71
2023/10/16 09:17:35;;;;;;;6.47;5.60;;;12.40;87.60;;;;;;4944975;28;20464;-73
2023/10/16 09:20:33;;;;;;;6.63;5.60;;;12.40;87.80;;;;;;4945715;28;20426;-70
2023/10/16 09:23:01;;;;;;;10.00;5.87;;;12.40;87.70;;;;;;4961337;28;20544;-70
2023/10/16 09:25:28;;;;;;;6.47;5.67;;;12.40;87.80;;;;;;4956271;28;20477;-70
2023/10/16 09:27:54;;;;;;;6.50;5.40;;;12.40;87.80;;;;;;4943236;29;20463;-69
2023/10/16 09:30:22;;;;;;;8.63;6.00;;;12.40;87.80;;;;;;4943980;29;20491;-69
2023/10/16 09:32:49;;;;;;;6.50;5.90;;;12.50;87.90;;;;;;4925271;29;20430;-70
2023/10/16 09:35:17;;;;;;;7.60;6.20;;;12.50;87.80;;;;;;4910581;29;20945;-69
2023/10/16 09:37:52;;;;;;;6.60;5.00;;;12.50;87.90;;;;;;4911286;29;20468;-70
2023/10/16 09:43:13;;;;;;;10.07;5.70;;;12.50;87.90;;;;;;4946283;28;20535;-70
2023/10/16 09:45:48;;;;;;;5.93;5.33;;;12.50;87.90;;;;;;4929238;28;20473;-70
2023/10/16 09:48:19;;;;;;;5.27;4.87;;;12.50;87.90;;;;;;4945264;28;20540;-70
2023/10/16 09:50:47;;;;;;;5.77;5.27;;;12.50;88.00;;;;;;4929102;28;20915;-70
2023/10/16 09:53:14;;;;;;;5.30;4.80;;;12.50;88.00;;;;;;4928966;28;20425;-71
2023/10/16 09:55:44;;;;;;;7.20;5.20;;;12.60;88.10;;;;;;4944790;28;20817;-70
2023/10/16 09:58:15;;;;;;;5.73;5.10;;;12.60;88.10;;;;;;4961335;28;20449;-69
2023/10/16 10:00:46;;;;;;;6.00;4.20;;;12.60;88.10;;;;;;4961799;28;20919;-70
2023/10/16 10:03:14;;;;;;;5.10;4.60;;;12.60;88.10;;;;;;4944031;28;20529;-70
2023/10/16 10:06:08;;;;;;;5.43;5.03;;;12.60;88.10;;;;;;4928212;28;20560;-69
2023/10/16 10:11:44;;;;;;;7.03;4.70;;;12.60;88.10;;;;;;4939764;29;20553;-75
2023/10/16 10:16:56;;;;;;;4.90;4.50;;;12.70;88.30;;;;;;4960014;28;20848;-74
2023/10/16 10:19:36;;;;;;;5.20;4.73;;;12.70;88.30;;;;;;4942136;28;20432;-75
2023/10/16 10:22:17;;;;;;;5.90;5.40;;;12.70;88.30;;;;;;4959874;28;20430;-75
2023/10/16 10:25:06;;;;;;;5.63;5.13;;;12.70;88.30;;;;;;4923564;29;20968;-75
2023/10/16 10:27:43;;;;;;;5.10;4.60;;;12.70;88.30;;;;;;4924649;29;20459;-73
2023/10/16 10:30:37;;;;;;;5.30;4.73;;;12.70;88.40;;;;;;4932567;29;20458;-74
2023/10/16 10:33:06;;;;;;;6.63;5.07;;;12.80;88.50;;;;;;4944013;28;21137;-74
2023/10/16 10:35:43;;;;;;;7.10;5.10;;;12.80;88.50;;;;;;4945321;28;20427;-73
2023/10/16 10:38:29;;;;;;;6.60;5.90;;;12.80;88.50;;;;;;4928640;28;20485;-72
2023/10/16 10:41:16;;;;;;;7.10;5.10;;;12.80;88.60;;;;;;4961243;28;20454;-72
2023/10/16 10:43:58;;;;;;;8.50;5.37;;;12.80;88.50;;;;;;4928089;28;20466;-72
2023/10/16 10:46:28;;;;;;;6.40;5.37;;;12.90;88.50;;;;;;4927403;28;20860;-71
2023/10/16 10:48:57;;;;;;;6.47;4.63;;;12.90;88.50;;;;;;4961498;28;20545;-72
2023/10/16 10:51:23;;;;;;;5.70;4.70;;;12.90;88.50;;;;;;4943555;28;20431;-71
2023/10/16 10:54:06;;;;;;;5.80;5.20;;;12.90;88.50;;;;;;4961013;28;21023;-72
2023/10/16 10:56:47;;;;;;;6.17;4.60;;;12.90;88.60;;;;;;4927109;28;20919;-72
2023/10/16 10:59:39;;;;;;;8.70;5.50;;;12.90;88.60;;;;;;4943877;28;20514;-71
2023/10/16 11:04:53;;;;;;;6.40;5.17;;;12.90;88.80;;;;;;4943547;28;20816;-72
2023/10/16 11:07:39;;;;;;;6.17;5.57;;;12.90;88.90;;;;;;4944654;28;21286;-72
2023/10/16 11:10:07;;;;;;;6.20;4.57;;;13.00;89.00;;;;;;4944422;28;20465;-71
2023/10/16 11:12:34;;;;;;;8.20;5.73;;;13.00;89.10;;;;;;4963689;28;20418;-71
2023/10/16 11:15:05;;;;;;;6.97;6.27;;;13.00;89.10;;;;;;4940993;28;21196;-76
2023/10/16 11:17:39;;;;;;;6.93;5.90;;;13.00;89.50;;;;;;4936114;28;20497;-76
2023/10/16 11:22:46;;;;;;;10.33;6.33;;;13.00;89.50;;;;;;4939620;28;20426;-76
2023/10/16 11:25:14;;;;;;;6.57;5.77;;;13.00;89.40;;;;;;4932278;28;20595;-76
2023/10/16 11:27:42;;;;;;;6.67;5.00;;;13.00;89.40;;;;;;4932199;28;20743;-76
2023/10/16 11:30:18;;;;;;;7.20;5.40;;;13.10;89.60;;;;;;4932198;28;20820;-76
2023/10/16 11:32:47;;;;;;;6.93;5.03;;;13.10;89.60;;;;;;4938040;28;20422;-77
2023/10/16 11:35:17;;;;;;;8.57;6.07;;;13.10;89.60;;;;;;4926721;28;20526;-76
2023/10/16 11:37:59;;;;;;;8.47;5.50;;;13.10;89.50;;;;;;4920538;28;20522;-76
2023/10/16 11:43:24;;;;;;;6.60;5.53;;;13.20;89.60;;;;;;4912766;28;20452;-76
2023/10/16 11:45:57;;;;;;;8.70;5.07;;;13.20;89.50;;;;;;4941542;28;20461;-76
2023/10/16 11:51:06;;;;;;;6.10;4.97;;;13.20;89.50;;;;;;4939287;28;20454;-76
2023/10/16 11:53:37;;;;;;;5.20;4.70;;;13.20;89.40;;;;;;4933723;28;21258;-76
2023/10/16 11:56:05;;;;;;;6.43;4.87;;;13.20;89.40;;;;;;4951611;28;20423;-76
2023/10/16 11:58:31;;;;;;;6.57;5.20;;;13.20;89.50;;;;;;4935711;28;20458;-76
2023/10/16 12:01:21;;;;;;;5.30;4.67;;;13.30;89.70;;;;;;4925784;28;20457;-76
2023/10/16 12:03:48;;;;;;;4.77;4.37;;;13.30;89.70;;;;;;4958952;28;20477;-75
2023/10/16 12:06:15;;;;;;;7.63;5.13;;;13.30;89.50;;;;;;4942748;28;20787;-76
2023/10/16 12:08:41;;;;;;;4.70;4.30;;;13.30;89.40;;;;;;4927888;28;21113;-76
2023/10/16 12:11:14;;;;;;;7.20;4.80;;;13.30;89.50;;;;;;4933487;28;20612;-76
2023/10/16 12:13:43;;;;;;;6.10;5.10;;;13.30;89.50;;;;;;4941330;28;20572;-76
2023/10/16 12:16:16;;;;;;;5.73;4.67;;;13.30;89.40;;;;;;4941209;28;20868;-76
2023/10/16 12:18:43;;;;;;;4.87;4.47;;;13.40;89.60;;;;;;4934618;29;21320;-76
2023/10/16 12:21:16;;;;;;;9.27;5.37;;;13.40;89.40;;;;;;4924564;28;20477;-76
2023/10/16 12:23:42;;;;;;;5.80;4.77;;;13.40;89.30;;;;;;4932653;28;20535;-76
2023/10/16 12:26:08;;;;;;;6.00;4.70;;;13.40;89.30;;;;;;4926282;28;20454;-75
2023/10/16 12:28:34;;;;;;;4.50;3.80;;;13.40;89.30;;;;;;4923295;28;21306;-76
2023/10/16 12:31:02;;;;;;;6.40;4.33;;;13.40;89.20;;;;;;4943632;28;20658;-76
2023/10/16 12:33:30;;;;;;;5.17;4.67;;;13.50;89.40;;;;;;4925958;28;20811;-76
2023/10/16 12:36:00;;;;;;;5.37;4.97;;;13.50;89.40;;;;;;4950882;28;21160;-76
2023/10/16 12:38:27;;;;;;;7.17;4.50;;;13.50;89.20;;;;;;4938140;29;20598;-76
2023/10/16 12:40:58;;;;;;;5.43;4.50;;;13.50;89.10;;;;;;4922814;28;20493;-76
2023/10/16 12:43:27;;;;;;;6.77;5.00;;;13.50;89.30;;;;;;4962632;28;20468;-76
2023/10/16 12:45:57;;;;;;;6.90;4.37;;;13.50;89.50;;;;;;4962583;28;20430;-76
2023/10/16 12:48:29;;;;;;;4.47;3.57;;;13.50;89.40;;;;;;4950952;28;20449;-76
2023/10/16 12:51:00;;;;;;;9.10;4.10;;;13.60;89.40;;;;;;4952115;28;20533;-76
2023/10/16 12:53:28;;;;;;;4.70;4.00;;;13.60;89.40;;;;;;4949748;28;20540;-76
2023/10/16 12:55:58;;;;;;;5.70;4.93;;;13.60;89.40;;;;;;4939975;28;21456;-76
2023/10/16 12:58:28;;;;;;;5.47;3.70;;;13.60;89.30;;;;;;4952379;28;21207;-76
2023/10/16 13:00:57;;;;;;;4.33;3.93;;;13.60;89.30;;;;;;4968258;28;20465;-76
2023/10/16 13:03:24;;;;;;;4.23;3.70;;;13.70;89.30;;;;;;4945111;28;20693;-76
2023/10/16 13:05:52;;;;;;;4.37;3.77;;;13.70;89.30;;;;;;4936886;28;20490;-76
2023/10/16 13:08:20;;;;;;;5.33;3.90;;;13.70;89.30;;;;;;4948979;28;20463;-75
2023/10/16 13:10:50;;;;;;;4.17;3.57;;;13.70;89.20;;;;;;4950192;28;21084;-74
2023/10/16 13:13:21;;;;;;;3.43;3.13;;;13.70;89.20;;;;;;4944494;28;20443;-72
2023/10/16 13:15:57;;;;;;;4.63;4.10;;;13.70;89.10;;;;;;4953090;28;20437;-75
2023/10/16 13:18:27;;;;;;;4.07;3.67;;;13.70;89.20;;;;;;4926066;28;20982;-75
2023/10/16 13:20:58;;;;;;;8.63;4.83;;;13.80;89.30;;;;;;4972112;28;20500;-74
2023/10/16 13:23:29;;;;;;;4.90;3.80;;;13.80;89.30;;;;;;4950348;28;20428;-74
2023/10/16 13:25:59;;;;;;;4.70;4.17;;;13.80;89.20;;;;;;4946084;28;20457;-74
2023/10/16 13:28:25;;;;;;;5.57;3.60;;;13.80;89.10;;;;;;4942772;28;20559;-76
2023/10/16 13:30:52;;;;;;;4.80;4.40;;;13.80;89.00;;;;;;4964055;28;20524;-76
2023/10/16 13:33:21;;;;;;;4.40;4.00;;;13.80;89.00;;;;;;4952976;28;20434;-76
2023/10/16 13:35:51;;;;;;;5.43;3.63;;;13.90;89.00;;;;;;4960745;28;21342;-76
2023/10/16 13:38:18;;;;;;;4.90;3.10;;;13.90;89.00;;;;;;4941366;28;20462;-76
2023/10/16 13:40:46;;;;;;;4.83;3.27;;;13.90;89.10;;;;;;4942727;28;20445;-76
2023/10/16 13:43:17;;;;;;;3.90;3.23;;;13.90;88.90;;;;;;4930057;28;20576;-76
2023/10/16 13:45:43;;;;;;;4.23;3.63;;;14.00;89.10;;;;;;4955365;28;20879;-77
2023/10/16 13:48:10;;;;;;;4.13;3.80;;;14.00;89.10;;;;;;4961500;28;20446;-76
2023/10/16 13:50:36;;;;;;;3.63;3.33;;;14.00;88.90;;;;;;4938946;29;20435;-76
2023/10/16 13:53:08;;;;;;;3.80;3.40;;;14.00;88.80;;;;;;4960787;28;20457;-76
2023/10/16 13:55:36;;;;;;;4.17;3.30;;;14.00;88.80;;;;;;4927472;29;20485;-76
2023/10/16 13:58:10;;;;;;;4.10;3.57;;;14.00;88.80;;;;;;4929215;28;20464;-76
2023/10/16 14:00:37;;;;;;;6.70;3.70;;;14.00;88.70;;;;;;4930932;28;20552;-76
2023/10/16 14:05:40;;;;;;;5.67;3.40;;;14.10;88.80;;;;;;4949001;28;20469;-76
2023/10/16 14:08:09;;;;;;;4.70;3.30;;;14.10;88.70;;;;;;4929115;28;21152;-76
2023/10/16 14:10:45;;;;;;;4.93;3.40;;;14.10;88.70;;;;;;4946391;28;20424;-74
2023/10/16 14:13:18;;;;;;;3.70;3.37;;;14.10;88.80;;;;;;4913564;28;20454;-77
2023/10/16 14:15:53;;;;;;;3.23;2.93;;;14.10;88.70;;;;;;4937211;29;20452;-76
2023/10/16 14:18:24;;;;;;;3.40;3.10;;;14.10;88.70;;;;;;4929426;28;20458;-75
2023/10/16 14:20:51;;;;;;;3.83;3.30;;;14.10;88.70;;;;;;4951985;28;20530;-73
2023/10/16 14:23:28;;;;;;;3.97;3.67;;;14.10;88.70;;;;;;4944011;28;20790;-74
2023/10/16 14:25:57;;;;;;;4.17;2.90;;;14.20;88.80;;;;;;4942243;28;20467;-74
2023/10/16 14:28:35;;;;;;;3.53;3.20;;;14.20;88.80;;;;;;4943637;28;20511;-73
2023/10/16 14:31:02;;;;;;;4.00;3.60;;;14.20;88.70;;;;;;4927691;28;21296;-74
2023/10/16 14:33:30;;;;;;;3.73;3.43;;;14.20;88.80;;;;;;4959990;28;21020;-74
2023/10/16 14:35:58;;;;;;;5.20;3.47;;;14.20;88.80;;;;;;4926117;28;20467;-73
2023/10/16 14:38:31;;;;;;;3.67;3.30;;;14.20;88.70;;;;;;4928388;28;20490;-74
2023/10/16 14:41:04;;;;;;;4.23;3.83;;;14.20;88.70;;;;;;4919693;28;20442;-74
2023/10/16 14:43:34;;;;;;;3.73;3.37;;;14.20;88.80;;;;;;4924807;28;20469;-74
2023/10/16 14:46:10;;;;;;;4.20;3.00;;;14.20;88.60;;;;;;4942632;28;20657;-74
2023/10/16 14:48:53;;;;;;;3.23;2.93;;;14.20;88.70;;;;;;4938570;28;20697;-74
2023/10/16 14:51:21;;;;;;;4.10;3.67;;;14.20;88.70;;;;;;4961319;28;20425;-74
2023/10/16 14:53:50;;;;;;;5.30;3.80;;;14.30;88.70;;;;;;4942985;28;20442;-74
2023/10/16 14:56:19;;;;;;;3.40;3.10;;;14.30;88.80;;;;;;4955355;28;20530;-74
2023/10/16 14:58:47;;;;;;;3.97;3.67;;;14.30;88.70;;;;;;4955208;28;20446;-74
2023/10/16 15:01:16;;;;;;;5.90;3.30;;;14.30;88.70;;;;;;4959464;28;20443;-74
2023/10/16 15:03:48;;;;;;;4.20;3.43;;;14.30;88.60;;;;;;4926543;28;20450;-74
2023/10/16 15:06:19;;;;;;;4.30;3.90;;;14.30;88.70;;;;;;4936377;28;20433;-76
2023/10/16 15:08:48;;;;;;;3.83;3.53;;;14.30;88.60;;;;;;4958696;28;20443;-76